Time;durP1;ratioP1;P1;durP2;ratioP2;P2;SDS_P1;SDS_P2;PMS_P1;PMS_P2;Temp;Humidity;BMP_temperature;BMP_pressure;BME280_temperature;BME280_humidity;BME280_pressure;Samples;Min_cycle;Max_cycle;Signal;HPM_P1;HPM_P2
2021/03/23 00:01:11;;;;;;;3.55;2.60;;;;;;;11.37;51.65;99133.08;1757610;79;21115;-68
2021/03/23 00:03:49;;;;;;;4.75;2.80;;;;;;;11.36;51.67;99134.10;1776488;78;21187;-69
2021/03/23 00:06:20;;;;;;;3.87;2.42;;;;;;;11.35;51.61;99133.77;1771228;78;21172;-69
2021/03/23 00:08:51;;;;;;;3.80;2.80;;;;;;;11.34;51.62;99131.63;1829753;76;21189;-71
2021/03/23 00:11:33;;;;;;;4.03;2.70;;;;;;;11.33;51.61;99133.95;1840299;76;21190;-71
2021/03/23 00:14:06;;;;;;;4.62;2.52;;;;;;;11.32;51.56;99133.66;1840510;76;21157;-70
2021/03/23 00:16:37;;;;;;;2.95;2.37;;;;;;;11.31;51.56;99139.16;1849976;76;21155;-71
2021/03/23 00:19:06;;;;;;;3.83;2.80;;;;;;;11.30;51.55;99139.66;1857814;76;21153;-70
2021/03/23 00:21:34;;;;;;;4.37;2.80;;;;;;;11.30;51.52;99141.48;1826058;76;21365;-70
2021/03/23 00:24:03;;;;;;;3.62;2.30;;;;;;;11.30;51.49;99137.01;1823726;76;21156;-70
2021/03/23 00:26:31;;;;;;;4.15;2.98;;;;;;;11.30;51.44;99137.01;1835877;76;21091;-70
2021/03/23 00:28:59;;;;;;;4.17;2.98;;;;;;;11.29;51.42;99131.87;1781658;79;21160;-69
2021/03/23 00:31:32;;;;;;;3.87;3.02;;;;;;;11.29;51.36;99124.70;1755495;80;21159;-70
2021/03/23 00:34:03;;;;;;;3.10;2.45;;;;;;;11.29;51.38;99123.89;1785276;79;22387;-70
2021/03/23 00:36:36;;;;;;;3.70;2.20;;;;;;;11.28;51.35;99127.55;1765822;79;21555;-71
2021/03/23 00:39:06;;;;;;;2.90;2.20;;;;;;;11.27;51.31;99124.59;1770140;79;21104;-70
2021/03/23 00:41:35;;;;;;;3.17;2.12;;;;;;;11.26;51.29;99125.10;1753346;79;21120;-70
2021/03/23 00:44:06;;;;;;;3.67;2.37;;;;;;;11.26;51.30;99126.43;1730827;80;21112;-71
2021/03/23 00:46:33;;;;;;;4.60;2.37;;;;;;;11.25;51.25;99126.61;1757385;80;21583;-70
2021/03/23 00:49:01;;;;;;;3.65;2.47;;;;;;;11.24;51.25;99130.27;1751108;79;21208;-69
2021/03/23 00:51:29;;;;;;;3.92;2.40;;;;;;;11.24;51.18;99138.24;1753144;80;21147;-70
2021/03/23 00:53:57;;;;;;;4.42;2.45;;;;;;;11.23;51.18;99129.96;1758632;79;21188;-70
2021/03/23 00:56:24;;;;;;;3.83;2.40;;;;;;;11.21;51.14;99130.96;1759670;79;21160;-71
2021/03/23 00:58:52;;;;;;;5.25;2.33;;;;;;;11.21;51.12;99125.64;1765141;79;21371;-69
2021/03/23 01:01:19;;;;;;;3.72;2.33;;;;;;;11.19;51.14;99126.34;1758856;79;21190;-70
2021/03/23 01:03:47;;;;;;;3.65;2.35;;;;;;;11.19;51.12;99130.84;1760874;79;21156;-70
2021/03/23 01:06:17;;;;;;;3.05;1.90;;;;;;;11.19;51.09;99130.84;1753535;79;21112;-70
2021/03/23 01:08:45;;;;;;;4.22;2.55;;;;;;;11.19;51.05;99130.84;1764137;79;21116;-70
2021/03/23 01:11:13;;;;;;;3.72;2.27;;;;;;;11.17;51.06;99127.55;1767231;79;21509;-68
2021/03/23 01:13:41;;;;;;;2.60;1.77;;;;;;;11.17;51.01;99124.89;1787841;79;21181;-70
2021/03/23 01:16:08;;;;;;;2.75;2.10;;;;;;;11.16;50.97;99129.88;1838933;75;21176;-70
2021/03/23 01:18:38;;;;;;;3.60;2.20;;;;;;;11.14;50.96;99126.58;1848713;77;21216;-70
2021/03/23 01:21:05;;;;;;;4.97;2.62;;;;;;;11.14;50.96;99122.59;1844274;77;21573;-70
2021/03/23 01:23:35;;;;;;;3.72;1.95;;;;;;;11.14;50.97;99129.23;1837850;77;21610;-71
2021/03/23 01:26:02;;;;;;;5.08;2.42;;;;;;;11.12;50.89;99125.42;1833513;75;21147;-70
2021/03/23 01:28:30;;;;;;;3.75;2.55;;;;;;;11.11;50.92;99125.13;1845151;76;21123;-70
2021/03/23 01:30:59;;;;;;;4.10;2.55;;;;;;;11.11;50.85;99129.11;1840519;75;21184;-70
2021/03/23 01:33:29;;;;;;;2.42;1.92;;;;;;;11.10;50.86;99131.95;1832418;75;21144;-70
2021/03/23 01:35:58;;;;;;;2.80;1.92;;;;;;;11.08;50.87;99128.14;1843406;77;21195;-71
2021/03/23 01:38:25;;;;;;;2.42;1.67;;;;;;;11.07;50.87;99129.17;1820975;75;21108;-70
2021/03/23 01:40:55;;;;;;;3.58;2.67;;;;;;;11.07;50.86;99130.98;1821644;75;21103;-70
2021/03/23 01:43:29;;;;;;;2.25;1.70;;;;;;;11.05;50.83;99133.00;1823792;77;21597;-69
2021/03/23 01:45:59;;;;;;;2.95;2.10;;;;;;;11.04;50.83;99122.89;1832594;77;21161;-71
2021/03/23 01:48:32;;;;;;;2.60;1.90;;;;;;;11.03;50.80;99130.55;1832208;76;21377;-70
2021/03/23 01:51:05;;;;;;;3.50;1.98;;;;;;;11.01;50.84;99124.09;1824348;76;21168;-70
2021/03/23 01:53:41;;;;;;;2.80;1.98;;;;;;;11.01;50.81;99134.72;1844178;76;21153;-70
2021/03/23 01:56:10;;;;;;;3.12;1.90;;;;;;;11.00;50.79;99128.26;1842363;76;21197;-71
2021/03/23 02:01:01;;;;;;;3.77;2.08;;;;;;;11.02;50.78;99126.23;1880303;75;28641;-71
2021/03/23 02:03:29;;;;;;;2.85;1.87;;;;;;;10.90;50.87;99125.08;1837925;77;20957;-69
2021/03/23 02:06:01;;;;;;;4.33;2.90;;;;;;;10.91;50.81;99128.85;1833951;77;21231;-69
2021/03/23 02:08:30;;;;;;;2.30;1.82;;;;;;;10.92;50.79;99131.03;1853442;77;20957;-69
2021/03/23 02:10:59;;;;;;;3.77;2.00;;;;;;;10.90;50.77;99128.55;1851330;77;21154;-70
2021/03/23 02:13:26;;;;;;;2.83;1.80;;;;;;;10.91;50.81;99133.34;1855114;77;21094;-69
2021/03/23 02:15:54;;;;;;;2.15;1.80;;;;;;;10.89;50.77;99133.53;1797182;77;21162;-70
2021/03/23 02:18:26;;;;;;;2.72;1.60;;;;;;;10.89;50.78;99130.88;1846334;77;21192;-70
2021/03/23 02:21:15;;;;;;;3.00;2.05;;;;;;;10.87;50.72;99131.56;1823483;77;20981;-72
2021/03/23 02:23:49;;;;;;;2.62;2.00;;;;;;;10.87;50.70;99134.22;1777016;80;21176;-71
2021/03/23 02:26:26;;;;;;;3.58;2.62;;;;;;;10.85;50.69;99125.61;1811853;78;21117;-70
2021/03/23 02:29:01;;;;;;;4.20;2.42;;;;;;;10.85;50.68;99131.44;1769920;79;21174;-70
2021/03/23 02:31:43;;;;;;;2.10;1.60;;;;;;;10.82;50.70;99132.13;1780627;80;21364;-70
2021/03/23 02:34:14;;;;;;;3.02;2.30;;;;;;;10.82;50.67;99132.13;1798317;78;21180;-71
2021/03/23 02:36:43;;;;;;;3.70;2.10;;;;;;;10.82;50.67;99140.09;1811747;78;21139;-70
2021/03/23 02:39:14;;;;;;;3.27;2.20;;;;;;;10.80;50.63;99138.13;1815668;78;21155;-68
2021/03/23 02:41:42;;;;;;;2.52;1.70;;;;;;;10.79;50.65;99136.47;1787087;78;21166;-69
2021/03/23 02:44:09;;;;;;;2.90;1.80;;;;;;;10.78;50.64;99137.49;1776145;80;21396;-71
2021/03/23 02:46:38;;;;;;;2.33;2.02;;;;;;;10.79;50.62;99138.31;1788754;78;21258;-70
2021/03/23 02:49:08;;;;;;;2.83;1.95;;;;;;;10.78;50.62;99138.83;1762703;80;21197;-69
2021/03/23 02:51:36;;;;;;;3.83;2.00;;;;;;;10.77;50.59;99136.34;1791304;79;21131;-70
2021/03/23 02:54:04;;;;;;;2.10;1.60;;;;;;;10.77;50.62;99137.16;1766659;79;21143;-70
2021/03/23 02:56:32;;;;;;;2.20;1.57;;;;;;;10.77;50.58;99142.98;1786241;79;21437;-69
2021/03/23 02:58:59;;;;;;;2.87;1.87;;;;;;;10.76;50.60;99137.37;1789925;78;21601;-70
2021/03/23 03:01:28;;;;;;;2.77;1.52;;;;;;;10.75;50.58;99141.84;1764708;80;21189;-69
2021/03/23 03:03:57;;;;;;;3.00;2.05;;;;;;;10.75;50.55;99144.49;1790632;78;21089;-70
2021/03/23 03:06:30;;;;;;;3.00;1.85;;;;;;;10.75;50.53;99139.69;1788745;78;21123;-70
2021/03/23 03:08:57;;;;;;;2.85;2.10;;;;;;;10.73;50.51;99143.85;1790196;78;21551;-70
2021/03/23 03:11:24;;;;;;;2.25;1.77;;;;;;;10.72;50.50;99142.22;1791325;78;21150;-69
2021/03/23 03:13:52;;;;;;;2.30;1.87;;;;;;;10.73;50.47;99149.67;1787872;78;21135;-69
2021/03/23 03:16:23;;;;;;;2.80;1.62;;;;;;;10.72;50.50;99142.70;1782609;78;21172;-69
2021/03/23 03:18:52;;;;;;;2.80;1.90;;;;;;;10.71;50.45;99140.56;1789015;78;21103;-69
2021/03/23 03:21:19;;;;;;;2.52;1.95;;;;;;;10.71;50.45;99142.39;1789788;78;22000;-70
2021/03/23 03:23:47;;;;;;;3.22;2.15;;;;;;;10.70;50.41;99142.91;1787704;78;21161;-69
2021/03/23 03:26:15;;;;;;;2.58;1.80;;;;;;;10.70;50.43;99148.70;1789725;78;21108;-70
2021/03/23 03:31:25;;;;;;;2.87;1.80;;;;;;;10.72;50.42;99140.89;1764191;78;28292;-70
2021/03/23 03:33:57;;;;;;;2.80;1.92;;;;;;;10.68;50.35;99150.24;1739382;82;21153;-69
2021/03/23 03:36:28;;;;;;;2.95;2.10;;;;;;;10.67;50.38;99143.27;1717803;80;21358;-72
2021/03/23 03:38:55;;;;;;;2.55;1.72;;;;;;;10.66;50.38;99145.59;1734121;81;21222;-70
2021/03/23 03:41:23;;;;;;;2.87;1.90;;;;;;;10.66;50.37;99146.91;1751425;81;21561;-71
2021/03/23 03:43:52;;;;;;;3.35;1.80;;;;;;;10.65;50.35;99146.61;1749690;81;21082;-71
2021/03/23 03:46:20;;;;;;;2.60;1.70;;;;;;;10.65;50.29;99149.78;1748468;81;21154;-71
2021/03/23 03:48:48;;;;;;;2.95;2.02;;;;;;;10.64;50.31;99147.60;1747261;81;22297;-70
2021/03/23 03:51:15;;;;;;;2.02;1.77;;;;;;;10.63;50.26;99152.61;1745603;79;21463;-71
2021/03/23 03:53:44;;;;;;;3.50;2.33;;;;;;;10.63;50.27;99149.95;1740242;81;21122;-68
2021/03/23 03:56:12;;;;;;;2.08;1.85;;;;;;;10.63;50.25;99152.61;1759066;81;21169;-68
2021/03/23 03:58:40;;;;;;;2.98;2.00;;;;;;;10.62;50.26;99160.24;1746391;81;21186;-69
2021/03/23 04:01:07;;;;;;;2.72;2.17;;;;;;;10.62;50.30;99156.26;1743712;81;21508;-70
2021/03/23 04:03:35;;;;;;;2.92;2.00;;;;;;;10.62;50.25;99160.24;1750684;79;21194;-68
2021/03/23 04:06:04;;;;;;;2.72;2.25;;;;;;;10.61;50.26;99162.08;1754530;81;21182;-70
2021/03/23 04:08:33;;;;;;;3.65;2.27;;;;;;;10.60;50.24;99163.59;1743826;81;21190;-70
2021/03/23 04:11:04;;;;;;;4.17;2.67;;;;;;;10.61;50.23;99161.27;1741034;81;21178;-70
2021/03/23 04:13:32;;;;;;;3.58;2.42;;;;;;;10.60;50.23;99168.42;1760351;79;21627;-70
2021/03/23 04:16:00;;;;;;;2.90;2.17;;;;;;;10.60;50.20;99166.24;1749548;81;21653;-70
2021/03/23 04:18:28;;;;;;;2.42;1.85;;;;;;;10.59;50.19;99171.25;1748009;81;21190;-70
2021/03/23 04:20:59;;;;;;;4.08;2.47;;;;;;;10.58;50.19;99170.91;1776121;80;21185;-70
2021/03/23 04:23:32;;;;;;;3.12;1.95;;;;;;;10.58;50.19;99177.05;1749036;81;21115;-70
2021/03/23 04:26:00;;;;;;;2.65;2.08;;;;;;;10.57;50.17;99178.58;1777895;78;21392;-69
2021/03/23 04:28:27;;;;;;;2.50;2.10;;;;;;;10.58;50.09;99178.88;1784107;78;21216;-69
2021/03/23 04:30:55;;;;;;;3.02;1.90;;;;;;;10.58;50.12;99170.91;1773652;80;21117;-69
2021/03/23 04:33:25;;;;;;;3.33;2.17;;;;;;;10.56;50.13;99172.93;1771070;79;21145;-70
2021/03/23 04:35:58;;;;;;;3.40;2.65;;;;;;;10.56;50.09;99179.06;1717467;81;21134;-70
2021/03/23 04:38:29;;;;;;;3.12;1.95;;;;;;;10.58;50.06;99174.90;1732380;81;21368;-70
2021/03/23 04:40:59;;;;;;;3.25;2.37;;;;;;;10.56;50.05;99181.72;1704463;82;21173;-70
2021/03/23 04:43:32;;;;;;;2.95;2.25;;;;;;;10.56;50.04;99183.05;1699412;82;21174;-69
2021/03/23 04:46:00;;;;;;;4.53;2.75;;;;;;;10.56;50.01;99179.06;1689043;84;21170;-69
2021/03/23 04:48:28;;;;;;;4.03;2.58;;;;;;;10.59;50.00;99185.86;1705634;82;21131;-69
2021/03/23 04:50:57;;;;;;;4.05;2.40;;;;;;;10.59;49.97;99183.20;1700404;82;21202;-69
2021/03/23 04:53:32;;;;;;;3.02;2.17;;;;;;;10.59;49.93;99183.20;1702584;82;21465;-69
2021/03/23 04:55:59;;;;;;;4.08;2.50;;;;;;;10.60;49.85;99179.52;1700621;84;21618;-70
2021/03/23 04:58:27;;;;;;;3.00;2.00;;;;;;;10.60;49.88;99183.03;1702140;84;21154;-69
2021/03/23 05:00:56;;;;;;;3.22;2.10;;;;;;;10.62;49.84;99182.82;1702497;84;21154;-69
2021/03/23 05:03:32;;;;;;;3.40;2.50;;;;;;;10.62;49.81;99184.15;1703545;82;21492;-69
2021/03/23 05:06:06;;;;;;;2.92;2.10;;;;;;;10.63;49.80;99190.61;1701051;82;21160;-70
2021/03/23 05:08:39;;;;;;;3.22;2.05;;;;;;;10.64;49.77;99190.10;1687546;84;21159;-69
2021/03/23 05:11:11;;;;;;;3.90;2.37;;;;;;;10.65;49.73;99193.09;1703343;84;21531;-68
2021/03/23 05:13:38;;;;;;;3.58;2.30;;;;;;;10.66;49.71;99188.59;1677330;84;21218;-69
2021/03/23 05:16:06;;;;;;;3.42;2.30;;;;;;;10.66;49.68;99186.76;1696434;84;21401;-69
2021/03/23 05:18:36;;;;;;;2.92;2.17;;;;;;;10.67;49.68;99188.42;1700740;82;21214;-69
2021/03/23 05:21:03;;;;;;;3.80;2.33;;;;;;;10.68;49.67;99186.10;1700804;84;21149;-70
2021/03/23 05:23:31;;;;;;;3.98;2.40;;;;;;;10.70;49.63;99188.07;1715475;82;21152;-70
2021/03/23 05:25:58;;;;;;;3.00;2.22;;;;;;;10.71;49.63;99187.05;1695475;84;21140;-70
2021/03/23 05:28:26;;;;;;;3.70;2.37;;;;;;;10.72;49.64;99184.73;1703371;82;21453;-70
2021/03/23 05:30:53;;;;;;;4.25;2.70;;;;;;;10.76;49.68;99193.98;1717161;82;21565;-69
2021/03/23 05:33:22;;;;;;;5.70;2.92;;;;;;;10.76;49.63;99193.98;1734636;82;21186;-70
2021/03/23 05:35:50;;;;;;;3.10;1.98;;;;;;;10.79;49.63;99192.27;1710200;83;21204;-68
2021/03/23 05:38:19;;;;;;;4.12;2.80;;;;;;;10.83;49.53;99196.72;1722408;82;21170;-70
2021/03/23 05:40:49;;;;;;;3.60;2.47;;;;;;;10.84;49.51;99194.39;1718760;81;21430;-69
2021/03/23 05:43:52;;;;;;;4.00;2.67;;;;;;;10.86;49.48;99196.88;1718907;82;21204;-70
2021/03/23 05:46:37;;;;;;;3.42;2.22;;;;;;;10.88;49.42;99192.20;1730103;82;21193;-71
2021/03/23 05:49:25;;;;;;;3.10;2.60;;;;;;;10.89;49.39;99191.98;1729780;82;21146;-71
2021/03/23 05:52:07;;;;;;;3.12;1.95;;;;;;;10.90;49.39;99196.31;1733259;82;21581;-71
2021/03/23 05:55:00;;;;;;;3.35;2.45;;;;;;;10.90;49.37;99193.66;1731378;82;21189;-70
2021/03/23 05:57:44;;;;;;;3.08;2.42;;;;;;;10.92;49.33;99195.63;1732782;82;21444;-70
2021/03/23 06:00:24;;;;;;;4.00;2.30;;;;;;;10.97;49.34;99193.73;1789853;78;28263;-72
2021/03/23 06:03:22;;;;;;;2.58;2.10;;;;;;;10.94;49.28;99192.27;1792192;78;21601;-71
2021/03/23 06:06:20;;;;;;;3.72;2.60;;;;;;;10.97;49.27;99192.40;1768329;80;21215;-71
2021/03/23 06:08:49;;;;;;;3.50;2.33;;;;;;;10.98;49.24;99192.73;1778174;80;21131;-70
2021/03/23 06:11:25;;;;;;;3.55;2.60;;;;;;;10.98;49.22;99194.06;1775130;80;21195;-69
2021/03/23 06:14:26;;;;;;;3.77;2.60;;;;;;;11.02;49.23;99194.02;1781792;80;21036;-70
2021/03/23 06:17:25;;;;;;;3.12;2.30;;;;;;;11.04;49.22;99195.16;1776084;80;22164;-71
2021/03/23 06:20:18;;;;;;;2.87;2.05;;;;;;;11.05;49.21;99200.30;1779114;79;21595;-71
2021/03/23 06:23:30;;;;;;;3.98;2.42;;;;;;;11.05;49.21;99202.96;1782285;80;21480;-70
2021/03/23 06:26:19;;;;;;;3.12;1.82;;;;;;;11.06;49.22;99209.91;1773109;80;21167;-70
2021/03/23 06:29:07;;;;;;;2.72;2.08;;;;;;;11.08;49.21;99209.73;1773173;78;21135;-70
2021/03/23 06:32:13;;;;;;;3.70;2.52;;;;;;;11.11;49.19;99212.85;1779392;79;21178;-69
2021/03/23 06:34:42;;;;;;;4.17;1.75;;;;;;;11.13;49.11;99213.48;1791136;79;21339;-71
2021/03/23 06:37:24;;;;;;;3.45;2.12;;;;;;;11.15;49.12;99215.45;1781768;80;21173;-71
2021/03/23 06:39:51;;;;;;;4.35;2.22;;;;;;;11.18;49.09;99221.75;1785726;80;21830;-71
2021/03/23 06:42:30;;;;;;;3.67;2.50;;;;;;;11.22;49.03;99223.50;1771537;80;21579;-72
2021/03/23 06:45:21;;;;;;;5.05;2.47;;;;;;;11.27;48.96;99228.28;1756940;80;21147;-72
2021/03/23 06:47:50;;;;;;;3.42;2.20;;;;;;;11.30;48.88;99229.23;1767323;80;22278;-71
2021/03/23 06:50:36;;;;;;;3.20;2.12;;;;;;;11.31;48.84;99225.06;1796794;78;21182;-70
2021/03/23 06:53:11;;;;;;;3.10;2.17;;;;;;;11.35;48.78;99225.00;1789921;78;21138;-70
2021/03/23 06:55:47;;;;;;;2.37;1.95;;;;;;;11.42;48.73;99222.44;1812305;78;28617;-71
2021/03/23 06:58:28;;;;;;;3.85;1.95;;;;;;;11.41;48.68;99219.45;1788849;80;21614;-70
2021/03/23 07:01:21;;;;;;;3.02;1.95;;;;;;;11.44;48.64;99220.42;1760145;80;21639;-70
2021/03/23 07:03:55;;;;;;;2.47;1.92;;;;;;;11.48;48.57;99218.22;1778144;79;21646;-67
2021/03/23 07:06:29;;;;;;;2.92;2.30;;;;;;;11.49;48.55;99216.70;1793219;79;21131;-68
2021/03/23 07:09:19;;;;;;;3.22;2.10;;;;;;;11.52;48.53;99212.33;1787388;79;21155;-68
2021/03/23 07:11:58;;;;;;;2.62;2.00;;;;;;;11.57;48.47;99219.25;1795368;79;21167;-67
2021/03/23 07:14:38;;;;;;;2.67;1.85;;;;;;;11.60;48.41;99212.72;1796134;79;21415;-68
2021/03/23 07:17:15;;;;;;;2.47;1.85;;;;;;;11.63;48.33;99208.36;1781867;79;21599;-67
2021/03/23 07:19:54;;;;;;;3.62;1.98;;;;;;;11.67;48.31;99215.47;1767580;79;21618;-68
2021/03/23 07:22:47;;;;;;;2.25;1.90;;;;;;;11.69;48.27;99209.45;1787948;79;21527;-68
2021/03/23 07:25:42;;;;;;;2.90;2.20;;;;;;;11.73;48.26;99205.40;1776482;79;21159;-70
2021/03/23 07:28:35;;;;;;;3.47;1.77;;;;;;;11.74;48.21;99211.02;1788185;79;21364;-68
2021/03/23 07:31:31;;;;;;;3.00;2.10;;;;;;;11.76;48.17;99211.66;1780230;79;21202;-68
2021/03/23 07:34:15;;;;;;;2.47;1.50;;;;;;;11.79;48.15;99204.64;1784852;79;21166;-69
2021/03/23 07:36:50;;;;;;;3.08;1.60;;;;;;;11.81;48.12;99207.93;1746402;79;21176;-69
2021/03/23 07:39:32;;;;;;;2.98;1.92;;;;;;;11.85;48.08;99208.38;1761215;79;21218;-68
2021/03/23 07:42:25;;;;;;;2.25;1.90;;;;;;;11.87;48.04;99208.50;1769267;79;21472;-66
2021/03/23 07:45:06;;;;;;;3.08;2.00;;;;;;;11.92;48.05;99218.63;1763425;81;21218;-70
2021/03/23 07:47:47;;;;;;;2.80;2.10;;;;;;;11.95;48.00;99214.23;1755843;79;21158;-68
2021/03/23 07:50:27;;;;;;;4.65;2.27;;;;;;;11.98;48.02;99214.69;1762844;79;21162;-70
2021/03/23 07:53:32;;;;;;;3.95;2.37;;;;;;;12.02;47.99;99206.33;1737265;81;21175;-67
2021/03/23 07:56:42;;;;;;;3.22;1.92;;;;;;;12.05;47.95;99208.08;1740675;81;22388;-66
2021/03/23 07:59:27;;;;;;;2.55;1.67;;;;;;;12.08;47.94;99207.71;1749888;81;21140;-66
2021/03/23 08:02:12;;;;;;;3.67;2.30;;;;;;;12.10;47.86;99200.36;1719870;81;21159;-67
2021/03/23 08:05:18;;;;;;;3.20;2.15;;;;;;;12.13;47.86;99209.30;1743897;81;21650;-67
2021/03/23 08:07:57;;;;;;;2.33;1.80;;;;;;;12.16;47.76;99202.77;1746829;82;21156;-67
2021/03/23 08:10:45;;;;;;;3.45;1.95;;;;;;;12.18;47.73;99198.88;1742026;82;21358;-66
2021/03/23 08:13:42;;;;;;;3.52;2.05;;;;;;;12.23;47.70;99204.98;1745473;82;21235;-66
2021/03/23 08:16:38;;;;;;;2.72;1.77;;;;;;;12.27;47.59;99194.26;1749685;82;21195;-67
2021/03/23 08:19:35;;;;;;;3.15;1.80;;;;;;;12.29;47.54;99196.22;1740800;80;21167;-67
2021/03/23 08:22:41;;;;;;;3.55;1.70;;;;;;;12.31;47.53;99201.36;1744642;82;21186;-68
2021/03/23 08:25:20;;;;;;;2.98;1.70;;;;;;;12.37;47.45;99201.91;1736295;81;21211;-66
2021/03/23 08:28:26;;;;;;;2.58;1.92;;;;;;;12.40;47.42;99200.21;1740074;82;21206;-66
2021/03/23 08:31:16;;;;;;;2.65;1.80;;;;;;;12.44;47.42;99197.47;1748404;82;21199;-65
2021/03/23 08:34:16;;;;;;;2.75;1.92;;;;;;;12.49;47.36;99196.36;1750135;82;21204;-67
2021/03/23 08:37:23;;;;;;;2.65;1.82;;;;;;;12.52;47.29;99195.98;1750368;82;21874;-68
2021/03/23 08:40:23;;;;;;;1.80;1.42;;;;;;;12.58;47.26;99201.87;1748065;82;22428;-68
2021/03/23 08:42:51;;;;;;;2.67;1.90;;;;;;;12.63;47.35;99196.46;1742184;82;21207;-67
2021/03/23 08:45:35;;;;;;;2.77;1.60;;;;;;;12.67;47.37;99197.23;1744110;82;21198;-66
2021/03/23 08:48:35;;;;;;;2.85;1.80;;;;;;;12.72;47.44;99201.95;1744377;82;21184;-67
2021/03/23 08:51:08;;;;;;;2.50;1.80;;;;;;;12.79;47.42;99191.66;1727205;82;21174;-69
2021/03/23 08:53:40;;;;;;;2.62;1.65;;;;;;;12.84;47.36;99206.23;1718326;80;22283;-67
2021/03/23 08:56:09;;;;;;;3.53;2.00;;;;;;;12.91;47.30;99195.11;1763108;80;21183;-70
2021/03/23 08:58:51;;;;;;;2.37;1.80;;;;;;;12.95;47.27;99201.17;1780470;80;21143;-66
2021/03/23 09:01:40;;;;;;;2.55;1.70;;;;;;;13.01;47.23;99197.41;1769122;79;21203;-67
2021/03/23 09:04:16;;;;;;;2.05;1.47;;;;;;;13.05;47.10;99191.48;1764964;79;21154;-66
2021/03/23 09:07:03;;;;;;;2.00;1.52;;;;;;;13.12;47.15;99195.01;1767928;79;22382;-65
2021/03/23 09:09:38;;;;;;;2.52;1.57;;;;;;;13.17;47.22;99192.58;1749076;79;21217;-66
2021/03/23 09:12:37;;;;;;;2.10;1.50;;;;;;;13.25;47.14;99180.92;1764297;79;21141;-67
2021/03/23 09:15:22;;;;;;;2.12;1.47;;;;;;;13.32;47.08;99186.30;1769117;79;21202;-68
2021/03/23 09:18:18;;;;;;;1.77;1.45;;;;;;;13.39;47.09;99181.82;1769009;80;21159;-69
2021/03/23 09:20:52;;;;;;;3.02;2.37;;;;;;;13.48;47.28;99178.45;1765044;79;21394;-67
2021/03/23 09:23:25;;;;;;;2.10;1.40;;;;;;;13.58;47.25;99178.91;1765407;79;28302;-66
2021/03/23 09:25:56;;;;;;;;;;;;;;;13.67;47.15;99179.01;1774791;79;21135;-67
2021/03/23 09:28:40;;;;;;;9.93;4.92;;;;;;;13.76;47.29;99174.31;1766392;79;20360;-62
2021/03/23 09:31:18;;;;;;;9.50;4.20;;;;;;;13.81;52.75;99134.98;1774091;79;21171;-62
2021/03/23 09:33:50;;;;;;;9.70;4.37;;;;;;;14.30;57.25;99137.27;1756001;79;21217;-62
2021/03/23 09:36:40;;;;;;;9.15;4.83;;;;;;;14.91;57.49;99132.63;1779513;80;21144;-72
2021/03/23 09:39:19;;;;;;;6.58;4.37;;;;;;;15.34;57.16;99168.98;1763496;79;21162;-71
2021/03/23 09:41:50;;;;;;;8.08;4.45;;;;;;;15.69;55.99;99166.45;1769213;79;21579;-69
2021/03/23 09:44:28;;;;;;;6.87;4.20;;;;;;;15.87;55.38;99168.41;1769193;80;22066;-68
2021/03/23 09:46:59;;;;;;;7.08;4.03;;;;;;;15.99;55.02;99163.17;1777083;79;21345;-69
2021/03/23 09:49:45;;;;;;;6.92;3.92;;;;;;;16.08;54.62;99161.88;1772286;79;21194;-67
2021/03/23 09:52:19;;;;;;;6.85;4.10;;;;;;;16.15;54.42;99159.97;1740154;81;21138;-69
2021/03/23 09:55:00;;;;;;;9.28;4.30;;;;;;;16.22;54.03;99152.67;1755482;80;21221;-69
2021/03/23 09:57:30;;;;;;;8.03;3.72;;;;;;;16.31;53.71;99163.95;1724806;82;21816;-70
2021/03/23 10:00:00;;;;;;;6.47;4.05;;;;;;;16.38;53.39;99161.20;1733828;82;21351;-70
2021/03/23 10:02:36;;;;;;;5.85;3.85;;;;;;;16.46;53.09;99150.22;1746947;82;21604;-67
2021/03/23 10:05:31;;;;;;;6.67;3.70;;;;;;;16.52;52.89;99157.38;1749176;81;21170;-67
2021/03/23 10:08:19;;;;;;;5.35;3.08;;;;;;;16.59;52.22;99158.64;1735905;82;21174;-70
2021/03/23 10:10:45;;;;;;;6.42;3.58;;;;;;;16.65;52.40;99155.06;1733400;81;21201;-68
2021/03/23 10:13:27;;;;;;;6.70;3.65;;;;;;;16.73;52.13;99163.34;1726481;82;21372;-72
2021/03/23 10:15:56;;;;;;;6.20;3.65;;;;;;;16.81;51.81;99157.70;1729734;82;21191;-70
2021/03/23 10:18:29;;;;;;;5.42;4.00;;;;;;;16.90;51.56;99155.03;1737610;81;21177;-70
2021/03/23 10:21:12;;;;;;;6.17;3.08;;;;;;;17.00;51.21;99157.22;1738308;82;22298;-70
2021/03/23 10:23:57;;;;;;;6.83;3.80;;;;;;;17.10;50.77;99147.58;1754298;80;21254;-71
2021/03/23 10:26:35;;;;;;;4.50;2.80;;;;;;;17.22;50.52;99154.35;1734064;80;22128;-70
2021/03/23 10:29:28;;;;;;;5.62;3.17;;;;;;;17.34;50.13;99155.75;1755807;80;21179;-68
2021/03/23 10:31:58;;;;;;;5.97;3.20;;;;;;;17.45;49.94;99154.98;1742310;81;21173;-69
2021/03/23 10:34:31;;;;;;;4.65;2.98;;;;;;;17.59;49.69;99156.95;1755573;81;21166;-69
2021/03/23 10:37:06;;;;;;;4.33;2.77;;;;;;;17.70;49.51;99159.40;1734396;82;21228;-70
2021/03/23 10:39:45;;;;;;;5.10;2.92;;;;;;;17.81;49.34;99169.37;1733595;82;21187;-71
2021/03/23 10:42:27;;;;;;;4.65;2.95;;;;;;;17.94;48.79;99158.14;1746030;82;21190;-71
2021/03/23 10:45:30;;;;;;;5.17;2.87;;;;;;;18.03;48.89;99157.58;1737748;82;21228;-69
2021/03/23 10:48:14;;;;;;;6.17;3.12;;;;;;;18.13;48.38;99154.31;1734696;81;21619;-70
2021/03/23 10:50:45;;;;;;;5.55;2.95;;;;;;;18.27;48.28;99153.56;1751181;81;21441;-73
2021/03/23 10:53:20;;;;;;;3.30;2.35;;;;;;;18.40;47.97;99156.56;1747756;82;21382;-71
2021/03/23 10:55:51;;;;;;;4.90;3.45;;;;;;;18.52;47.54;99157.38;1759389;80;21211;-72
2021/03/23 10:58:25;;;;;;;3.95;2.80;;;;;;;18.75;46.95;99158.42;1778104;79;21191;-72
2021/03/23 11:01:16;;;;;;;4.20;3.10;;;;;;;18.99;46.93;99164.09;1780263;79;21171;-73
2021/03/23 11:03:46;;;;;;;4.28;3.08;;;;;;;19.38;46.26;99162.98;1774415;80;21131;-70
2021/03/23 11:06:34;;;;;;;4.17;2.98;;;;;;;19.64;46.20;99151.34;1780772;79;21363;-65
2021/03/23 11:09:08;;;;;;;4.95;2.70;;;;;;;20.11;45.23;99124.66;1778387;79;21174;-66
2021/03/23 11:11:35;;;;;;;4.10;2.80;;;;;;;20.70;45.67;99151.20;1779107;79;21119;-67
2021/03/23 11:14:03;;;;;;;5.20;2.83;;;;;;;21.33;44.68;99163.34;1777538;80;21158;-66
2021/03/23 11:16:33;;;;;;;4.90;2.55;;;;;;;21.96;43.58;99152.09;1776023;80;21639;-68
2021/03/23 11:19:07;;;;;;;11.57;2.90;;;;;;;22.52;42.44;99159.33;1777527;80;21460;-65
2021/03/23 11:21:35;;;;;;;5.72;3.12;;;;;;;23.12;41.91;99126.59;1761632;80;21226;-61
2021/03/23 11:24:06;;;;;;;5.08;2.80;;;;;;;23.12;41.91;99126.59;1771393;80;21123;-61
2021/03/23 11:26:34;;;;;;;5.92;3.00;;;;;;;23.21;41.34;99127.72;1776058;80;21233;-61
2021/03/23 11:29:05;;;;;;;4.22;2.70;;;;;;;23.23;41.01;99139.10;1776517;80;21484;-62
2021/03/23 11:31:34;;;;;;;5.58;2.77;;;;;;;23.21;40.79;99138.55;1775629;80;21343;-62
2021/03/23 11:34:02;;;;;;;4.75;3.12;;;;;;;23.19;40.65;99143.43;1765567;80;21186;-62
2021/03/23 11:36:31;;;;;;;4.17;2.60;;;;;;;23.20;40.50;99145.59;1775310;80;21682;-62
2021/03/23 11:39:00;;;;;;;8.83;3.10;;;;;;;23.19;40.37;99139.91;1775391;80;21251;-60
2021/03/23 11:41:35;;;;;;;10.75;4.47;;;;;;;23.23;40.35;99135.04;1764891;80;21149;-60
2021/03/23 11:44:07;;;;;;;8.98;4.00;;;;;;;23.29;40.66;99125.84;1742863;80;22293;-61
2021/03/23 11:46:42;;;;;;;8.58;3.17;;;;;;;23.42;41.20;99121.81;1779896;80;21544;-60
2021/03/23 11:49:43;;;;;;;10.30;3.67;;;;;;;23.61;41.81;99134.88;1771470;80;21178;-61
2021/03/23 11:52:13;;;;;;;9.98;3.50;;;;;;;23.86;41.94;99138.19;1775469;80;21211;-67
2021/03/23 11:54:41;;;;;;;13.15;4.25;;;;;;;24.19;42.27;99133.30;1773992;80;22148;-65
2021/03/23 11:57:11;;;;;;;6.85;3.50;;;;;;;24.45;42.44;99129.44;1774325;80;22269;-64
2021/03/23 11:59:38;;;;;;;7.60;3.33;;;;;;;24.64;41.92;99113.41;1778788;80;21127;-64
2021/03/23 12:02:08;;;;;;;8.08;3.22;;;;;;;24.80;41.38;99126.42;1775872;80;21048;-64
2021/03/23 12:04:36;;;;;;;9.10;3.37;;;;;;;25.03;41.00;99122.78;1779973;80;21171;-65
2021/03/23 12:07:32;;;;;;;4.25;3.02;;;;;;;25.29;40.58;99129.76;1773414;80;21179;-64
2021/03/23 12:10:07;;;;;;;6.72;3.15;;;;;;;25.62;40.27;99124.66;1770060;80;21394;-65
2021/03/23 12:12:46;;;;;;;4.47;2.92;;;;;;;25.98;39.54;99118.16;1764103;81;21158;-66
2021/03/23 12:15:21;;;;;;;5.65;2.85;;;;;;;26.30;38.93;99113.52;1768511;81;21539;-65
2021/03/23 12:17:53;;;;;;;4.35;2.85;;;;;;;26.60;38.33;99117.87;1761651;81;21524;-69
2021/03/23 12:20:26;;;;;;;5.60;2.87;;;;;;;26.87;37.75;99107.75;1764054;79;21215;-67